Time;durP1;ratioP1;P1;durP2;ratioP2;P2;SDS_P1;SDS_P2;PMS_P1;PMS_P2;Temp;Humidity;BMP_temperature;BMP_pressure;BME280_temperature;BME280_humidity;BME280_pressure;Samples;Min_cycle;Max_cycle;Signal;HPM_P1;HPM_P2
2022/07/06 00:01:37;;;;;;;39.65;37.75;;;;;;;23.39;34.98;102465.69;4958091;28;20042;-87
2022/07/06 00:04:03;;;;;;;43.10;40.88;;;;;;;23.34;34.99;102461.03;4957644;28;20118;-88
2022/07/06 00:06:29;;;;;;;40.20;37.70;;;;;;;23.30;35.15;102465.44;4957717;28;20090;-88
2022/07/06 00:08:54;;;;;;;40.78;38.78;;;;;;;23.26;35.09;102462.47;4959233;28;20086;-89
2022/07/06 00:11:20;;;;;;;40.45;38.25;;;;;;;23.25;35.45;102465.50;4958633;29;20472;-88
2022/07/06 00:13:46;;;;;;;40.35;38.30;;;;;;;23.21;35.48;102470.75;4965286;28;20031;-82
2022/07/06 00:16:12;;;;;;;42.92;40.47;;;;;;;23.18;35.05;102468.56;4967381;28;20033;-90
2022/07/06 00:18:37;;;;;;;40.38;38.38;;;;;;;23.14;35.31;102467.50;4960300;28;20031;-87
2022/07/06 00:21:03;;;;;;;40.30;38.30;;;;;;;23.11;35.14;102468.91;4958829;28;20035;-87
2022/07/06 00:23:28;;;;;;;40.08;38.08;;;;;;;23.09;35.09;102470.28;4957974;28;20099;-88
2022/07/06 00:25:53;;;;;;;41.65;39.55;;;;;;;23.06;35.06;102465.34;4964499;28;20038;-88
2022/07/06 00:28:19;;;;;;;40.00;37.83;;;;;;;23.03;35.35;102475.03;4961813;28;20035;-88
2022/07/06 00:30:44;;;;;;;43.40;41.05;;;;;;;23.00;35.21;102467.28;4961865;28;20084;-88
2022/07/06 00:33:10;;;;;;;40.28;38.22;;;;;;;22.97;35.50;102467.03;4962065;28;20042;-90
2022/07/06 00:35:36;;;;;;;37.58;35.72;;;;;;;22.93;35.57;102465.94;4965153;28;20031;-89
2022/07/06 00:38:01;;;;;;;40.70;38.47;;;;;;;22.90;35.79;102465.38;4962970;28;20407;-89
2022/07/06 00:40:26;;;;;;;39.83;37.90;;;;;;;22.87;35.74;102471.47;4960578;28;20392;-88
2022/07/06 00:42:52;;;;;;;39.92;37.92;;;;;;;22.85;35.88;102464.59;4961033;28;20081;-75
2022/07/06 00:45:18;;;;;;;39.03;36.85;;;;;;;22.82;35.64;102463.25;4960422;29;20495;-88
2022/07/06 00:47:45;;;;;;;38.90;36.90;;;;;;;22.78;35.77;102464.94;4961291;28;20035;-88
2022/07/06 00:50:13;;;;;;;40.75;38.65;;;;;;;22.76;35.85;102467.16;4962021;29;20039;-88
2022/07/06 00:52:39;;;;;;;39.25;37.35;;;;;;;22.74;35.50;102474.03;4978098;28;20055;-88
2022/07/06 00:55:04;;;;;;;39.33;37.08;;;;;;;22.70;35.86;102471.00;4963336;28;20042;-88
2022/07/06 00:57:30;;;;;;;39.65;37.65;;;;;;;22.67;35.37;102480.66;4975760;28;20520;-84
2022/07/06 00:59:56;;;;;;;39.65;37.65;;;;;;;22.65;35.90;102466.38;4976719;28;20047;-84
2022/07/06 01:02:22;;;;;;;40.05;37.83;;;;;;;22.62;36.03;102469.66;4963938;28;20468;-90
2022/07/06 01:04:48;;;;;;;39.75;37.78;;;;;;;22.59;35.97;102474.94;4964542;28;20035;-90
2022/07/06 01:07:13;;;;;;;39.85;37.75;;;;;;;22.57;35.98;102474.38;4966096;28;20061;-88
2022/07/06 01:09:39;;;;;;;37.63;35.72;;;;;;;22.54;35.97;102469.44;4965806;28;20523;-89
2022/07/06 01:12:04;;;;;;;39.03;37.03;;;;;;;22.49;35.78;102467.53;4964480;29;20042;-91
2022/07/06 01:14:31;;;;;;;37.75;35.85;;;;;;;22.46;35.77;102468.91;4985471;28;20063;-87
2022/07/06 01:16:57;;;;;;;40.67;38.67;;;;;;;22.44;35.86;102462.06;4973139;28;20039;-79
2022/07/06 01:19:22;;;;;;;37.90;35.60;;;;;;;22.40;36.08;102461.81;4972299;28;20035;-89
2022/07/06 01:21:48;;;;;;;39.90;37.78;;;;;;;22.37;36.08;102461.53;4971166;28;20133;-88
2022/07/06 01:24:13;;;;;;;39.28;37.28;;;;;;;22.35;36.36;102460.97;4963117;28;20090;-89
2022/07/06 01:26:39;;;;;;;37.88;35.97;;;;;;;22.32;36.12;102462.34;4960675;29;20039;-88
2022/07/06 01:29:04;;;;;;;38.55;36.47;;;;;;;22.29;35.89;102467.63;4968864;28;20068;-89
2022/07/06 01:31:31;;;;;;;38.38;36.40;;;;;;;22.27;36.33;102469.81;4976016;28;20455;-85
2022/07/06 01:33:57;;;;;;;37.60;35.22;;;;;;;22.23;36.40;102464.88;4977181;28;20039;-82
2022/07/06 01:36:23;;;;;;;37.92;35.83;;;;;;;22.19;35.86;102463.78;4977211;28;20034;-84
2022/07/06 01:38:51;;;;;;;37.65;35.63;;;;;;;22.17;36.22;102468.69;4990646;28;20038;-87
2022/07/06 01:41:17;;;;;;;38.85;36.85;;;;;;;22.14;36.33;102460.19;4967460;28;20035;-87
2022/07/06 01:43:43;;;;;;;39.05;37.08;;;;;;;22.11;36.33;102460.75;4964081;28;20035;-87
2022/07/06 01:46:09;;;;;;;38.80;36.58;;;;;;;22.07;36.38;102465.97;4961123;28;20089;-87
2022/07/06 01:48:34;;;;;;;37.10;35.20;;;;;;;22.05;36.36;102470.94;4960312;28;20464;-88
2022/07/06 01:51:00;;;;;;;38.28;35.88;;;;;;;22.01;36.40;102459.66;4961518;28;20031;-87
2022/07/06 01:53:25;;;;;;;36.95;35.05;;;;;;;21.99;36.16;102467.38;4981773;28;20028;-87
2022/07/06 01:55:51;;;;;;;38.83;36.47;;;;;;;21.97;36.46;102466.84;4973586;28;20046;-90
2022/07/06 01:58:16;;;;;;;38.20;36.08;;;;;;;21.94;36.65;102458.31;4989648;28;20034;-89
2022/07/06 02:00:41;;;;;;;36.50;34.45;;;;;;;21.91;36.79;102465.19;4976201;28;20034;-88
2022/07/06 02:03:07;;;;;;;37.63;35.63;;;;;;;21.89;36.22;102458.31;4977248;28;20031;-85
2022/07/06 02:05:32;;;;;;;37.50;35.60;;;;;;;21.87;36.69;102460.50;4974211;29;20416;-87
2022/07/06 02:07:58;;;;;;;37.60;35.40;;;;;;;21.85;36.29;102462.72;4975023;29;20110;-86
2022/07/06 02:10:23;;;;;;;37.70;35.58;;;;;;;21.81;36.57;102467.94;4996109;28;20027;-84
2022/07/06 02:12:49;;;;;;;36.13;34.33;;;;;;;21.78;36.70;102474.00;4980105;28;20046;-85
2022/07/06 02:15:14;;;;;;;35.67;33.78;;;;;;;21.75;36.36;102469.88;4980732;28;20057;-84
2022/07/06 02:17:39;;;;;;;35.95;33.75;;;;;;;21.71;36.39;102463.28;4978364;28;20072;-88
2022/07/06 02:20:05;;;;;;;36.03;34.00;;;;;;;21.70;36.88;102469.91;4980221;28;20031;-76
2022/07/06 02:22:31;;;;;;;36.97;35.08;;;;;;;21.66;36.71;102471.53;4980120;28;20041;-84
2022/07/06 02:24:56;;;;;;;35.97;34.17;;;;;;;21.65;36.59;102471.81;4980699;28;20091;-83
2022/07/06 02:27:21;;;;;;;37.92;35.60;;;;;;;21.61;36.88;102468.78;4980030;28;20054;-88
2022/07/06 02:29:47;;;;;;;35.80;34.00;;;;;;;21.59;36.49;102462.72;4980373;28;20019;-80
2022/07/06 02:32:12;;;;;;;36.88;34.85;;;;;;;21.55;36.51;102458.91;4980611;28;20033;-85
2022/07/06 02:34:38;;;;;;;35.65;33.85;;;;;;;21.53;36.76;102461.91;4980822;28;20023;-84
2022/07/06 02:37:03;;;;;;;35.58;33.67;;;;;;;21.48;36.71;102455.59;4980938;28;20019;-88
2022/07/06 02:39:28;;;;;;;35.20;33.35;;;;;;;21.46;36.55;102458.59;4980294;28;20042;-82
2022/07/06 02:41:54;;;;;;;35.88;33.78;;;;;;;21.43;36.46;102448.16;4974980;28;20031;-88
2022/07/06 02:44:19;;;;;;;35.38;33.38;;;;;;;21.41;36.59;102449.53;4958573;28;20035;-84
2022/07/06 02:46:45;;;;;;;34.67;32.97;;;;;;;21.39;36.63;102458.06;4958184;28;20443;-86
2022/07/06 02:49:10;;;;;;;35.97;34.13;;;;;;;21.36;36.84;102461.31;4957157;28;20050;-87
2022/07/06 02:51:36;;;;;;;34.28;32.58;;;;;;;21.35;36.57;102462.44;4958546;28;20073;-89
2022/07/06 02:54:01;;;;;;;35.10;33.40;;;;;;;21.32;36.97;102469.31;4957723;28;20046;-87
2022/07/06 02:56:27;;;;;;;36.17;34.28;;;;;;;21.29;36.72;102475.34;4955555;28;20036;-77
2022/07/06 02:58:53;;;;;;;35.50;33.40;;;;;;;21.27;36.70;102474.78;4970652;28;20404;-76
2022/07/06 03:01:18;;;;;;;35.88;33.97;;;;;;;21.24;37.08;102464.31;4956203;28;20486;-76
2022/07/06 03:03:44;;;;;;;34.95;33.15;;;;;;;21.22;37.18;102472.03;4954905;29;20067;-76
2022/07/06 03:06:09;;;;;;;33.78;31.98;;;;;;;21.18;36.62;102466.25;4955596;28;20051;-76
2022/07/06 03:08:35;;;;;;;34.78;32.92;;;;;;;21.15;36.82;102468.72;4954408;29;20039;-76
2022/07/06 03:11:00;;;;;;;35.05;32.63;;;;;;;21.13;36.98;102469.00;4954289;29;20038;-75
2022/07/06 03:13:27;;;;;;;35.13;32.90;;;;;;;21.12;37.25;102463.78;4956091;28;20513;-75
2022/07/06 03:15:52;;;;;;;35.47;33.15;;;;;;;21.08;37.23;102471.72;4955384;28;20054;-76
2022/07/06 03:18:17;;;;;;;35.78;33.83;;;;;;;21.06;37.24;102476.66;4955386;28;20479;-75
2022/07/06 03:20:43;;;;;;;34.92;33.03;;;;;;;21.04;36.83;102473.38;4954006;29;20031;-75
2022/07/06 03:23:08;;;;;;;34.22;32.22;;;;;;;21.02;37.04;102475.56;4955437;28;20472;-75
2022/07/06 03:25:33;;;;;;;33.83;32.13;;;;;;;21.00;36.92;102476.94;4955450;28;20035;-75
2022/07/06 03:27:59;;;;;;;34.25;32.50;;;;;;;20.98;37.12;102476.38;4955526;28;20385;-76
2022/07/06 03:30:24;;;;;;;34.25;32.53;;;;;;;20.95;37.08;102478.56;4970087;28;20039;-75
2022/07/06 03:32:50;;;;;;;34.10;32.30;;;;;;;20.92;36.98;102473.63;4955371;28;20043;-76
2022/07/06 03:35:15;;;;;;;34.17;31.92;;;;;;;20.90;37.11;102480.47;4955204;28;20484;-75
2022/07/06 03:37:40;;;;;;;33.63;31.70;;;;;;;20.87;37.34;102470.03;4955623;28;20039;-75
2022/07/06 03:40:06;;;;;;;34.10;32.13;;;;;;;20.84;37.22;102467.81;4954168;29;20037;-75
2022/07/06 03:42:32;;;;;;;35.55;33.58;;;;;;;20.80;37.54;102473.03;4970219;28;20380;-76
2022/07/06 03:44:57;;;;;;;34.38;32.28;;;;;;;20.79;37.37;102478.78;4955820;28;20039;-76
2022/07/06 03:47:22;;;;;;;34.08;32.35;;;;;;;20.77;37.54;102472.75;4938506;29;20114;-75
2022/07/06 03:49:47;;;;;;;33.72;31.92;;;;;;;20.74;37.24;102468.63;4954135;29;20114;-76
2022/07/06 03:52:13;;;;;;;33.50;31.80;;;;;;;20.72;37.54;102473.56;4954298;29;20042;-76
2022/07/06 03:54:38;;;;;;;33.60;31.80;;;;;;;20.70;37.24;102467.50;4953860;29;20070;-76
2022/07/06 03:57:04;;;;;;;33.17;31.48;;;;;;;20.67;37.35;102463.38;4955421;28;20067;-75
2022/07/06 03:59:29;;;;;;;34.55;32.72;;;;;;;20.65;37.55;102468.31;4955715;28;20039;-76
2022/07/06 04:01:54;;;;;;;34.03;32.30;;;;;;;20.63;37.57;102470.50;4942057;29;20063;-77
2022/07/06 04:04:20;;;;;;;34.10;32.42;;;;;;;20.61;37.55;102466.38;4957563;29;20035;-74
2022/07/06 04:06:45;;;;;;;33.13;31.38;;;;;;;20.57;37.71;102457.84;4959221;28;20130;-75
2022/07/06 04:09:10;;;;;;;33.88;32.08;;;;;;;20.56;37.68;102458.09;4958897;28;20039;-76
2022/07/06 04:11:36;;;;;;;34.13;32.20;;;;;;;20.53;37.74;102459.44;4958808;28;20032;-75
2022/07/06 04:14:01;;;;;;;32.78;30.95;;;;;;;20.50;37.79;102459.97;4958758;28;20122;-75
2022/07/06 04:16:27;;;;;;;35.00;33.17;;;;;;;20.47;37.39;102447.63;4958933;28;20035;-75
2022/07/06 04:18:52;;;;;;;34.60;32.47;;;;;;;20.46;37.91;102450.63;4959030;28;20039;-75
2022/07/06 04:21:18;;;;;;;32.78;30.98;;;;;;;20.44;37.77;102450.09;4973341;28;20094;-74
2022/07/06 04:23:43;;;;;;;33.00;31.30;;;;;;;20.42;37.80;102449.53;4958497;28;20471;-74
2022/07/06 04:26:09;;;;;;;33.15;31.45;;;;;;;20.39;38.00;102453.63;4973840;28;20134;-75
2022/07/06 04:28:34;;;;;;;34.20;32.40;;;;;;;20.36;37.80;102445.94;4958416;28;20070;-76
2022/07/06 04:30:59;;;;;;;32.50;30.80;;;;;;;20.35;37.64;102451.69;4958970;28;20420;-75
2022/07/06 04:33:25;;;;;;;33.75;31.98;;;;;;;20.32;37.69;102451.13;4957908;29;20118;-76
2022/07/06 04:35:50;;;;;;;33.22;31.52;;;;;;;20.30;37.96;102456.03;4958161;28;20472;-75
2022/07/06 04:38:16;;;;;;;32.45;30.75;;;;;;;20.29;37.78;102453.56;4958446;28;20035;-74
2022/07/06 04:40:41;;;;;;;32.85;31.20;;;;;;;20.26;37.71;102454.94;4958198;28;20430;-75
2022/07/06 04:43:06;;;;;;;32.92;31.23;;;;;;;20.25;38.19;102453.28;4958745;28;20376;-75
2022/07/06 04:45:32;;;;;;;33.20;31.35;;;;;;;20.23;38.14;102458.19;4958181;28;20035;-76
2022/07/06 04:47:57;;;;;;;33.40;31.52;;;;;;;20.23;37.88;102447.22;4956427;29;20473;-76
2022/07/06 04:50:23;;;;;;;32.40;30.60;;;;;;;20.20;38.22;102449.69;4957960;28;20043;-73
2022/07/06 04:52:48;;;;;;;31.80;30.20;;;;;;;20.19;38.08;102459.84;4957912;28;20464;-75
2022/07/06 04:55:14;;;;;;;31.45;29.55;;;;;;;20.19;38.16;102456.28;4956642;29;20092;-76
2022/07/06 04:57:40;;;;;;;33.03;30.85;;;;;;;20.17;38.09;102452.97;4957763;28;20468;-75
2022/07/06 05:00:06;;;;;;;33.10;31.15;;;;;;;20.15;38.49;102460.63;4957548;28;20058;-75
2022/07/06 05:02:32;;;;;;;33.78;31.90;;;;;;;20.16;38.22;102462.25;4957338;28;20050;-75
2022/07/06 05:04:57;;;;;;;32.78;30.98;;;;;;;20.14;38.57;102461.72;4958069;28;20043;-75
2022/07/06 05:07:27;;;;;;;32.78;31.08;;;;;;;20.13;38.64;102466.38;4956208;28;20046;-76
2022/07/06 05:09:53;;;;;;;32.25;30.42;;;;;;;20.12;38.57;102472.13;4957333;28;20394;-76
2022/07/06 05:12:18;;;;;;;32.85;31.15;;;;;;;20.10;38.60;102464.97;4955213;28;20484;-75
2022/07/06 05:14:44;;;;;;;32.95;31.25;;;;;;;20.10;38.29;102472.38;4957321;28;20038;-74
2022/07/06 05:17:09;;;;;;;32.33;30.63;;;;;;;20.10;38.44;102466.91;4957193;28;20369;-74
2022/07/06 05:19:34;;;;;;;32.80;31.08;;;;;;;20.08;38.28;102475.41;4955954;29;20444;-74
2022/07/06 05:22:00;;;;;;;34.28;32.47;;;;;;;20.09;38.61;102471.56;4957425;28;20087;-75
2022/07/06 05:24:25;;;;;;;31.98;30.27;;;;;;;20.08;38.57;102472.66;4972428;28;20039;-75
2022/07/06 05:26:51;;;;;;;32.08;30.27;;;;;;;20.07;38.67;102473.75;4957496;28;20115;-76
2022/07/06 05:29:16;;;;;;;31.52;29.90;;;;;;;20.08;38.29;102475.41;4957414;28;20036;-75
2022/07/06 05:31:41;;;;;;;33.28;31.35;;;;;;;20.07;38.77;102481.97;4957469;28;20428;-75
2022/07/06 05:34:07;;;;;;;30.90;29.33;;;;;;;20.07;38.60;102479.22;4972689;28;20031;-75
2022/07/06 05:36:32;;;;;;;32.33;30.58;;;;;;;20.08;38.85;102485.53;4957396;28;20428;-75
2022/07/06 05:38:57;;;;;;;31.20;29.55;;;;;;;20.08;38.93;102482.78;4956936;28;20042;-75
2022/07/06 05:41:23;;;;;;;31.48;29.77;;;;;;;20.08;38.87;102478.16;4955770;29;20035;-75
2022/07/06 05:43:48;;;;;;;31.98;30.38;;;;;;;20.08;38.84;102477.31;4957329;28;20085;-75
2022/07/06 05:46:14;;;;;;;30.25;28.55;;;;;;;20.09;38.76;102478.97;4957053;28;20061;-76
2022/07/06 05:51:23;;;;;;;30.30;28.80;;;;;;;20.10;39.03;102478.69;4942918;29;20050;-77
2022/07/06 05:53:48;;;;;;;32.28;30.48;;;;;;;20.12;38.70;102474.88;4956892;28;20039;-75
2022/07/06 05:56:14;;;;;;;30.73;29.02;;;;;;;20.13;38.89;102479.25;4956540;28;20032;-75
2022/07/06 05:58:39;;;;;;;32.22;30.40;;;;;;;20.14;38.75;102483.69;4956802;28;20106;-75
2022/07/06 06:01:07;;;;;;;31.27;29.60;;;;;;;20.15;38.90;102479.84;4955627;28;20039;-76
2022/07/06 06:03:32;;;;;;;30.52;29.00;;;;;;;20.16;39.09;102486.97;4956733;28;20043;-75
2022/07/06 06:05:58;;;;;;;30.88;29.02;;;;;;;20.17;39.15;102489.44;4957203;28;20101;-75
2022/07/06 06:08:23;;;;;;;30.80;29.27;;;;;;;20.18;39.07;102490.28;4955756;29;20491;-75
2022/07/06 06:10:49;;;;;;;32.03;30.42;;;;;;;20.19;39.01;102490.00;4955630;29;20384;-76
2022/07/06 06:13:14;;;;;;;31.15;29.55;;;;;;;20.21;39.17;102490.59;4956215;28;20522;-76
2022/07/06 06:15:39;;;;;;;32.00;30.33;;;;;;;20.22;38.91;102484.00;4971835;28;20046;-76
2022/07/06 06:18:05;;;;;;;30.73;29.23;;;;;;;20.24;39.14;102490.03;4955044;29;20032;-76
2022/07/06 06:20:30;;;;;;;30.58;28.98;;;;;;;20.25;39.37;102486.19;4956483;28;20453;-76
2022/07/06 06:22:58;;;;;;;31.52;29.83;;;;;;;20.26;39.27;102484.28;4956546;28;20046;-75
2022/07/06 06:25:28;;;;;;;31.55;29.95;;;;;;;20.27;39.06;102494.19;4971645;28;20035;-75
2022/07/06 06:27:53;;;;;;;32.10;30.40;;;;;;;20.29;39.42;102490.06;4955909;28;20057;-75
2022/07/06 06:30:18;;;;;;;31.95;30.15;;;;;;;20.31;39.31;102490.63;4956377;28;20424;-75
2022/07/06 06:32:44;;;;;;;31.73;30.05;;;;;;;20.34;39.39;102491.19;4970793;28;20039;-75
2022/07/06 06:35:09;;;;;;;32.40;30.70;;;;;;;20.36;39.39;102492.59;4956637;28;20039;-76
2022/07/06 06:37:35;;;;;;;31.63;30.02;;;;;;;20.37;39.49;102493.41;4956207;28;20082;-76
2022/07/06 06:40:01;;;;;;;30.92;28.73;;;;;;;20.42;39.73;102493.44;4939250;28;20043;-76
2022/07/06 06:42:26;;;;;;;30.90;29.40;;;;;;;20.43;39.63;102501.38;4955308;29;20035;-76
2022/07/06 06:44:52;;;;;;;32.28;30.48;;;;;;;20.46;39.71;102497.28;4956169;28;20476;-76
2022/07/06 06:47:19;;;;;;;31.48;29.88;;;;;;;20.48;39.45;102497.84;4954586;29;20121;-76
2022/07/06 06:49:44;;;;;;;31.92;30.13;;;;;;;20.50;39.81;102496.47;4955702;28;20403;-76
2022/07/06 06:52:09;;;;;;;30.75;29.15;;;;;;;20.52;39.57;102494.31;4970951;28;20039;-76
2022/07/06 06:54:35;;;;;;;31.63;30.02;;;;;;;20.56;39.51;102491.88;4955318;29;20045;-76
2022/07/06 06:57:00;;;;;;;30.70;29.10;;;;;;;20.60;39.54;102503.16;4955837;28;20031;-76
2022/07/06 06:59:25;;;;;;;32.00;29.88;;;;;;;20.63;39.63;102497.13;4955748;28;20392;-76
2022/07/06 07:01:51;;;;;;;31.42;29.83;;;;;;;20.66;40.19;102494.69;4955777;28;20039;-77
2022/07/06 07:04:17;;;;;;;31.13;29.33;;;;;;;20.70;39.72;102495.78;4955431;28;20035;-76
2022/07/06 07:06:42;;;;;;;30.92;29.27;;;;;;;20.73;40.00;102503.47;4955701;28;20081;-76
2022/07/06 07:09:08;;;;;;;30.30;28.80;;;;;;;20.75;39.69;102498.56;4955630;28;20480;-77
2022/07/06 07:11:33;;;;;;;31.17;29.58;;;;;;;20.78;40.31;102493.63;4955622;28;20031;-76
2022/07/06 07:14:00;;;;;;;30.73;29.23;;;;;;;20.81;40.13;102498.56;4954275;28;20032;-77
2022/07/06 07:16:26;;;;;;;31.27;29.77;;;;;;;20.83;40.10;102499.94;4955428;28;20031;-77
2022/07/06 07:18:51;;;;;;;32.33;30.63;;;;;;;20.87;40.35;102501.06;4955502;28;20118;-76
2022/07/06 07:21:16;;;;;;;31.35;29.65;;;;;;;20.92;40.06;102505.75;4955597;28;20039;-76
2022/07/06 07:23:42;;;;;;;31.73;30.13;;;;;;;20.95;39.97;102499.72;4955432;28;20349;-77
2022/07/06 07:26:08;;;;;;;31.55;30.05;;;;;;;20.99;40.17;102503.59;4970252;28;20054;-77
2022/07/06 07:28:33;;;;;;;32.15;30.55;;;;;;;21.04;39.95;102500.88;4970356;28;20046;-78
2022/07/06 07:30:59;;;;;;;31.70;29.80;;;;;;;21.08;39.78;102507.44;4955384;28;20039;-77
2022/07/06 07:33:24;;;;;;;30.50;29.00;;;;;;;21.12;39.76;102508.56;4954465;29;20031;-77
2022/07/06 07:35:50;;;;;;;31.70;30.15;;;;;;;21.16;40.09;102506.09;4955300;28;20039;-77
2022/07/06 07:38:15;;;;;;;32.53;30.83;;;;;;;21.22;39.88;102510.53;4955249;28;20055;-77
2022/07/06 07:40:41;;;;;;;33.28;31.50;;;;;;;21.27;40.15;102516.03;4970089;28;20035;-76
2022/07/06 07:43:06;;;;;;;32.53;30.92;;;;;;;21.31;39.94;102505.28;4955740;28;20036;-78
2022/07/06 07:45:31;;;;;;;33.47;31.67;;;;;;;21.34;40.18;102510.25;4955503;28;20487;-76
2022/07/06 07:47:57;;;;;;;33.30;31.63;;;;;;;21.38;40.03;102500.38;4954209;29;20035;-76
2022/07/06 07:50:23;;;;;;;33.58;31.90;;;;;;;21.42;40.14;102503.41;4954311;29;20059;-78
2022/07/06 07:52:48;;;;;;;33.63;31.52;;;;;;;21.48;40.09;102503.16;4955568;28;20043;-76
2022/07/06 07:55:13;;;;;;;32.20;30.38;;;;;;;21.54;40.13;102498.47;4953943;29;20130;-77
2022/07/06 07:57:39;;;;;;;31.95;30.35;;;;;;;21.59;40.01;102501.22;4938027;28;20420;-77
2022/07/06 08:00:05;;;;;;;32.88;31.27;;;;;;;21.66;39.97;102510.03;4955338;28;20434;-77
2022/07/06 08:02:30;;;;;;;31.80;30.30;;;;;;;21.73;39.98;102504.28;4953891;29;20066;-77
2022/07/06 08:04:56;;;;;;;34.95;33.25;;;;;;;21.78;39.86;102496.84;4955042;28;20039;-77
2022/07/06 08:07:21;;;;;;;33.85;32.15;;;;;;;21.86;39.93;102500.97;4955444;28;20179;-79
2022/07/06 08:09:47;;;;;;;34.72;33.05;;;;;;;21.91;40.07;102495.44;4955105;28;20391;-79
2022/07/06 08:12:12;;;;;;;33.70;32.00;;;;;;;21.97;39.79;102491.59;4970444;28;20109;-78
2022/07/06 08:14:38;;;;;;;34.72;33.13;;;;;;;22.04;39.88;102494.88;4955015;28;20162;-78
2022/07/06 08:17:03;;;;;;;35.67;33.83;;;;;;;22.11;39.98;102497.34;4955517;28;20039;-78
2022/07/06 08:19:30;;;;;;;36.35;34.50;;;;;;;22.19;39.69;102495.94;4970069;28;20039;-77
2022/07/06 08:21:56;;;;;;;34.33;32.63;;;;;;;22.25;39.60;102492.09;4954898;28;20035;-78
2022/07/06 08:24:21;;;;;;;37.25;35.47;;;;;;;22.30;39.53;102489.38;4969720;28;20024;-78
2022/07/06 08:26:47;;;;;;;35.40;33.40;;;;;;;22.36;39.70;102503.94;4953880;29;20077;-78
2022/07/06 08:29:12;;;;;;;34.92;33.22;;;;;;;22.42;39.59;102495.34;4954962;28;20039;-77
2022/07/06 08:31:37;;;;;;;33.88;32.28;;;;;;;22.50;39.44;102490.38;4970197;28;20058;-76
2022/07/06 08:34:03;;;;;;;35.67;33.78;;;;;;;22.57;39.65;102496.41;4954656;28;20042;-77
2022/07/06 08:36:29;;;;;;;34.90;33.25;;;;;;;22.62;39.75;102491.72;4954697;28;20051;-78
2022/07/06 08:38:55;;;;;;;36.03;34.10;;;;;;;22.69;39.33;102494.16;4954725;28;20078;-78
2022/07/06 08:41:23;;;;;;;34.95;33.33;;;;;;;22.74;39.33;102485.88;4955020;28;20384;-78
2022/07/06 08:43:50;;;;;;;36.47;34.67;;;;;;;22.81;39.15;102475.38;4954624;28;20031;-78
2022/07/06 08:46:16;;;;;;;36.80;35.08;;;;;;;22.87;39.59;102474.22;4954722;28;20134;-77
2022/07/06 08:48:42;;;;;;;36.35;34.65;;;;;;;22.93;39.40;102475.06;4957165;29;20476;-77
2022/07/06 08:51:07;;;;;;;37.22;35.35;;;;;;;22.99;39.18;102473.94;4956971;29;20039;-77
2022/07/06 08:53:33;;;;;;;36.75;35.00;;;;;;;23.04;39.67;102473.09;4956677;29;20074;-76
2022/07/06 08:55:59;;;;;;;38.75;36.95;;;;;;;23.10;39.11;102471.94;4956967;28;20114;-77
2022/07/06 08:58:26;;;;;;;37.55;35.75;;;;;;;23.15;38.98;102469.13;4958308;28;20075;-78
2022/07/06 09:00:53;;;;;;;37.17;35.38;;;;;;;23.22;38.96;102471.59;4973578;28;20039;-77
2022/07/06 09:03:19;;;;;;;38.92;37.10;;;;;;;23.27;38.74;102464.09;4958409;28;20118;-78
2022/07/06 09:05:46;;;;;;;38.92;37.05;;;;;;;23.35;38.77;102479.19;4956476;29;20047;-77
2022/07/06 09:08:12;;;;;;;40.83;38.83;;;;;;;23.41;39.01;102467.03;4973080;28;20360;-79
2022/07/06 09:10:38;;;;;;;38.45;36.65;;;;;;;23.47;38.55;102468.63;4973386;28;20039;-77
2022/07/06 09:13:06;;;;;;;39.75;37.85;;;;;;;23.54;38.68;102471.88;4957675;28;20097;-78
2022/07/06 09:15:35;;;;;;;38.50;36.70;;;;;;;23.59;38.85;102475.72;4957375;28;20027;-77
2022/07/06 09:18:01;;;;;;;40.40;38.50;;;;;;;23.64;38.52;102470.16;4957535;28;20071;-77
2022/07/06 09:20:27;;;;;;;37.67;35.88;;;;;;;23.69;38.15;102470.94;4957626;28;20055;-78
2022/07/06 09:23:03;;;;;;;40.97;39.05;;;;;;;23.74;38.57;102473.66;4956173;29;20381;-79
2022/07/06 09:25:29;;;;;;;39.67;37.78;;;;;;;23.80;38.44;102477.19;4956591;29;20043;-78
2022/07/06 09:27:57;;;;;;;41.20;39.03;;;;;;;23.85;38.14;102479.91;4958003;28;20376;-79
2022/07/06 09:30:24;;;;;;;38.60;36.80;;;;;;;23.90;38.22;102481.81;4957550;28;20045;-75
2022/07/06 09:32:52;;;;;;;42.20;40.20;;;;;;;23.94;37.89;102475.41;4972934;28;20354;-77
2022/07/06 09:35:24;;;;;;;41.95;39.85;;;;;;;24.01;37.38;102474.22;4955997;28;20039;-78
2022/07/06 09:38:03;;;;;;;41.92;39.90;;;;;;;24.06;37.90;102483.28;4972601;28;20035;-77
2022/07/06 09:40:32;;;;;;;40.47;38.58;;;;;;;24.10;37.74;102484.34;4957711;28;20464;-76
2022/07/06 09:43:20;;;;;;;40.83;38.92;;;;;;;24.17;37.18;102484.00;4972714;28;20031;-77
2022/07/06 09:45:50;;;;;;;39.35;37.45;;;;;;;24.21;37.18;102481.47;4957182;28;20035;-77
2022/07/06 09:48:21;;;;;;;42.30;40.30;;;;;;;24.26;37.32;102484.19;4957290;28;20039;-77
2022/07/06 09:51:06;;;;;;;41.13;39.22;;;;;;;24.28;37.56;102479.19;4957058;28;20484;-77
2022/07/06 09:53:35;;;;;;;41.72;39.72;;;;;;;24.33;37.17;102479.94;4957472;28;20031;-76
2022/07/06 09:56:01;;;;;;;42.05;39.85;;;;;;;24.36;37.47;102482.13;4957172;28;20118;-75
2022/07/06 09:58:27;;;;;;;41.80;39.80;;;;;;;24.41;37.15;102486.75;4956312;28;20142;-79
2022/07/06 10:00:53;;;;;;;43.10;41.00;;;;;;;24.44;37.50;102488.94;4972006;28;20514;-78
2022/07/06 10:03:19;;;;;;;43.05;41.00;;;;;;;24.48;37.15;102487.25;4956841;28;20110;-77
2022/07/06 10:05:47;;;;;;;42.22;40.22;;;;;;;24.53;36.79;102480.88;4957407;28;20495;-78
2022/07/06 10:08:13;;;;;;;42.97;40.88;;;;;;;24.54;37.35;102486.06;4956838;28;20062;-79
2022/07/06 10:10:40;;;;;;;42.15;40.05;;;;;;;24.59;37.24;102486.03;4956730;28;20043;-78
2022/07/06 10:13:07;;;;;;;42.55;40.50;;;;;;;24.63;36.82;102485.44;4956301;28;20059;-78
2022/07/06 10:15:34;;;;;;;42.72;40.72;;;;;;;24.68;36.70;102490.91;4955334;29;20038;-78
2022/07/06 10:18:01;;;;;;;42.97;40.57;;;;;;;24.70;36.66;102495.00;4971571;28;20031;-78
2022/07/06 10:20:32;;;;;;;45.30;43.20;;;;;;;24.74;36.99;102498.81;4939543;29;20042;-78
2022/07/06 10:22:59;;;;;;;43.35;41.30;;;;;;;24.77;36.57;102497.41;4957134;29;20476;-78
2022/07/06 10:25:26;;;;;;;44.03;41.95;;;;;;;24.80;36.72;102492.13;4957205;28;20043;-78
2022/07/06 10:27:52;;;;;;;44.47;42.33;;;;;;;24.83;36.41;102493.47;4956090;28;20043;-78
2022/07/06 10:30:17;;;;;;;48.15;45.80;;;;;;;24.87;36.50;102493.69;4956163;28;20035;-78
2022/07/06 10:32:45;;;;;;;43.60;41.30;;;;;;;24.91;36.27;102490.03;4956241;28;20042;-78
2022/07/06 10:35:12;;;;;;;45.88;43.58;;;;;;;24.93;36.39;102496.09;4956343;28;20023;-78
2022/07/06 10:37:37;;;;;;;44.90;42.80;;;;;;;24.96;36.10;102489.94;4971579;28;20039;-77
2022/07/06 10:42:51;;;;;;;44.05;41.95;;;;;;;25.02;36.34;102480.47;4956661;29;20054;-77
2022/07/06 10:45:29;;;;;;;43.85;41.55;;;;;;;25.06;36.01;102477.94;4955307;29;20039;-78
2022/07/06 10:48:12;;;;;;;43.65;41.42;;;;;;;25.11;36.12;102480.63;4956438;28;20031;-78
2022/07/06 10:50:45;;;;;;;46.13;43.92;;;;;;;25.14;35.78;102481.97;4971118;28;20031;-80
2022/07/06 10:53:33;;;;;;;45.88;43.72;;;;;;;25.17;35.66;102476.66;4971632;28;20118;-79
2022/07/06 10:55:58;;;;;;;43.28;41.28;;;;;;;25.19;36.03;102471.66;4971594;28;20089;-79
2022/07/06 10:58:51;;;;;;;50.30;47.90;;;;;;;25.23;35.80;102477.44;4954675;29;20031;-78
2022/07/06 11:01:17;;;;;;;44.45;42.35;;;;;;;25.25;36.21;102461.38;4955595;28;20062;-78
2022/07/06 11:03:44;;;;;;;47.00;44.80;;;;;;;25.29;35.92;102464.34;4955600;28;20046;-79
2022/07/06 11:06:13;;;;;;;43.67;41.67;;;;;;;25.31;36.10;102465.69;4955459;28;20500;-76
2022/07/06 11:08:53;;;;;;;44.92;42.42;;;;;;;25.36;36.24;102473.09;4955561;28;20255;-78
2022/07/06 11:11:21;;;;;;;46.03;43.72;;;;;;;25.38;35.76;102468.06;4955405;28;20557;-78